Aviation Digital Data Service (ADDS)

Output produced by TAFs form (1146 UTC 27 May 2017)
found at http://www.aviationweather.gov/adds/tafs/
 
METAR text: RJAW 270900Z 18007KT 9999 BKN004 SCT230 26/24 Q1013 RMK 5ST004 A2994
Conditions at: RJAW (IWOJIMA (JMSDF) , JP) observed 0900 UTC 27 May 2017
Temperature: 26.0°C (79°F)
Dewpoint: 24.0°C (75°F) [RH = 89%]
Pressure (altimeter): 29.91 inches Hg (1013.0 mb)
Winds: from the S (180 degrees) at 8 MPH (7 knots; 3.6 m/s)
Visibility: 6 or more miles (10+ km)
Ceiling: 400 feet AGL
Clouds: broken clouds at 400 feet AGL
scattered clouds at 23000 feet AGL
Weather: no significant weather observed at this time